sensor_id;sensor_type;location;lat;lon;timestamp;temperature;humidity
33699;DHT22;20032;52.436;13.312;2023-06-14T00:00:10;16.20;95.80
33699;DHT22;20032;52.436;13.312;2023-06-14T00:02:38;16.20;96.00
33699;DHT22;20032;52.436;13.312;2023-06-14T00:05:04;16.10;96.10
33699;DHT22;20032;52.436;13.312;2023-06-14T00:07:35;16.10;96.20
33699;DHT22;20032;52.436;13.312;2023-06-14T00:10:02;16.10;96.40
33699;DHT22;20032;52.436;13.312;2023-06-14T00:12:28;16.00;97.00
33699;DHT22;20032;52.436;13.312;2023-06-14T00:14:53;16.00;97.10
33699;DHT22;20032;52.436;13.312;2023-06-14T00:17:19;16.00;97.40
33699;DHT22;20032;52.436;13.312;2023-06-14T00:19:46;16.00;97.60
33699;DHT22;20032;52.436;13.312;2023-06-14T00:22:11;16.10;97.60
33699;DHT22;20032;52.436;13.312;2023-06-14T00:24:37;16.00;97.80
33699;DHT22;20032;52.436;13.312;2023-06-14T00:27:03;16.00;98.20
33699;DHT22;20032;52.436;13.312;2023-06-14T00:29:28;16.00;98.30
33699;DHT22;20032;52.436;13.312;2023-06-14T00:31:54;16.00;98.40
33699;DHT22;20032;52.436;13.312;2023-06-14T00:34:19;16.10;98.40
33699;DHT22;20032;52.436;13.312;2023-06-14T00:36:45;16.20;98.40
33699;DHT22;20032;52.436;13.312;2023-06-14T00:39:10;16.10;98.80
33699;DHT22;20032;52.436;13.312;2023-06-14T00:41:37;16.10;99.00
33699;DHT22;20032;52.436;13.312;2023-06-14T00:44:02;16.00;99.30
33699;DHT22;20032;52.436;13.312;2023-06-14T00:46:28;16.00;99.70
33699;DHT22;20032;52.436;13.312;2023-06-14T00:48:55;15.90;99.90
33699;DHT22;20032;52.436;13.312;2023-06-14T00:51:21;15.80;99.90
33699;DHT22;20032;52.436;13.312;2023-06-14T00:53:47;15.90;99.90
33699;DHT22;20032;52.436;13.312;2023-06-14T00:56:14;15.80;99.90
33699;DHT22;20032;52.436;13.312;2023-06-14T00:58:40;15.70;99.90
33699;DHT22;20032;52.436;13.312;2023-06-14T01:01:06;15.70;99.90
33699;DHT22;20032;52.436;13.312;2023-06-14T01:03:31;15.70;99.90
33699;DHT22;20032;52.436;13.312;2023-06-14T01:06:19;15.70;99.90
33699;DHT22;20032;52.436;13.312;2023-06-14T01:14:16;15.70;99.90
33699;DHT22;20032;52.436;13.312;2023-06-14T01:16:43;15.60;99.90
33699;DHT22;20032;52.436;13.312;2023-06-14T01:19:12;15.60;99.90
33699;DHT22;20032;52.436;13.312;2023-06-14T01:21:39;15.60;99.90
33699;DHT22;20032;52.436;13.312;2023-06-14T01:24:08;15.50;99.90
33699;DHT22;20032;52.436;13.312;2023-06-14T01:26:34;15.50;99.90
33699;DHT22;20032;52.436;13.312;2023-06-14T01:29:03;15.50;99.90
33699;DHT22;20032;52.436;13.312;2023-06-14T01:31:29;15.50;99.90
33699;DHT22;20032;52.436;13.312;2023-06-14T01:33:55;15.50;99.90
33699;DHT22;20032;52.436;13.312;2023-06-14T01:36:22;15.60;99.90
33699;DHT22;20032;52.436;13.312;2023-06-14T01:38:50;15.60;99.90
33699;DHT22;20032;52.436;13.312;2023-06-14T01:41:17;15.60;99.90
33699;DHT22;20032;52.436;13.312;2023-06-14T01:43:45;15.50;99.90
33699;DHT22;20032;52.436;13.312;2023-06-14T01:46:10;15.50;99.90
33699;DHT22;20032;52.436;13.312;2023-06-14T01:48:37;15.40;99.90
33699;DHT22;20032;52.436;13.312;2023-06-14T01:51:03;15.40;99.90
33699;DHT22;20032;52.436;13.312;2023-06-14T01:53:28;15.50;99.90
33699;DHT22;20032;52.436;13.312;2023-06-14T01:55:53;15.40;99.90
33699;DHT22;20032;52.436;13.312;2023-06-14T01:58:20;15.40;99.90
33699;DHT22;20032;52.436;13.312;2023-06-14T02:00:46;15.40;99.90
33699;DHT22;20032;52.436;13.312;2023-06-14T02:03:12;15.30;99.90
33699;DHT22;20032;52.436;13.312;2023-06-14T02:05:38;15.20;99.90
33699;DHT22;20032;52.436;13.312;2023-06-14T02:08:05;15.20;99.90
33699;DHT22;20032;52.436;13.312;2023-06-14T02:10:31;15.20;99.90
33699;DHT22;20032;52.436;13.312;2023-06-14T02:12:56;15.10;99.90
33699;DHT22;20032;52.436;13.312;2023-06-14T02:15:21;15.10;99.90
33699;DHT22;20032;52.436;13.312;2023-06-14T02:17:49;15.00;99.90
33699;DHT22;20032;52.436;13.312;2023-06-14T02:20:14;15.00;99.90
33699;DHT22;20032;52.436;13.312;2023-06-14T02:22:40;15.10;99.90
33699;DHT22;20032;52.436;13.312;2023-06-14T02:25:06;15.10;99.90
33699;DHT22;20032;52.436;13.312;2023-06-14T02:27:33;15.10;99.90
33699;DHT22;20032;52.436;13.312;2023-06-14T02:29:59;15.00;99.90
33699;DHT22;20032;52.436;13.312;2023-06-14T02:32:24;15.10;99.90
33699;DHT22;20032;52.436;13.312;2023-06-14T02:34:51;15.10;99.90
33699;DHT22;20032;52.436;13.312;2023-06-14T02:37:18;15.00;99.90
33699;DHT22;20032;52.436;13.312;2023-06-14T02:39:44;15.00;99.90
33699;DHT22;20032;52.436;13.312;2023-06-14T02:42:09;15.10;99.90
33699;DHT22;20032;52.436;13.312;2023-06-14T02:44:35;15.20;99.90
33699;DHT22;20032;52.436;13.312;2023-06-14T02:47:01;15.10;99.90
33699;DHT22;20032;52.436;13.312;2023-06-14T02:49:27;15.10;99.90
33699;DHT22;20032;52.436;13.312;2023-06-14T02:51:52;15.00;99.90
33699;DHT22;20032;52.436;13.312;2023-06-14T02:54:18;15.00;99.90
33699;DHT22;20032;52.436;13.312;2023-06-14T02:56:43;15.00;99.90
33699;DHT22;20032;52.436;13.312;2023-06-14T02:59:09;14.90;99.90
33699;DHT22;20032;52.436;13.312;2023-06-14T03:01:35;15.00;99.90
33699;DHT22;20032;52.436;13.312;2023-06-14T03:04:01;14.90;99.90
33699;DHT22;20032;52.436;13.312;2023-06-14T03:06:29;14.80;99.90
33699;DHT22;20032;52.436;13.312;2023-06-14T03:08:56;14.80;99.90
33699;DHT22;20032;52.436;13.312;2023-06-14T03:11:24;14.80;99.90
33699;DHT22;20032;52.436;13.312;2023-06-14T03:13:50;14.90;99.90
33699;DHT22;20032;52.436;13.312;2023-06-14T03:16:16;14.80;99.90
33699;DHT22;20032;52.436;13.312;2023-06-14T03:18:45;14.90;99.90
33699;DHT22;20032;52.436;13.312;2023-06-14T03:21:10;14.80;99.90
33699;DHT22;20032;52.436;13.312;2023-06-14T03:23:36;14.80;99.90
33699;DHT22;20032;52.436;13.312;2023-06-14T03:26:01;14.90;99.90
33699;DHT22;20032;52.436;13.312;2023-06-14T03:28:27;15.00;99.90
33699;DHT22;20032;52.436;13.312;2023-06-14T03:30:52;15.00;99.90
33699;DHT22;20032;52.436;13.312;2023-06-14T03:33:18;15.00;99.90
33699;DHT22;20032;52.436;13.312;2023-06-14T03:35:44;15.10;99.90
33699;DHT22;20032;52.436;13.312;2023-06-14T03:38:10;15.00;99.90
33699;DHT22;20032;52.436;13.312;2023-06-14T03:40:35;15.00;99.90
33699;DHT22;20032;52.436;13.312;2023-06-14T03:43:02;15.00;99.90
33699;DHT22;20032;52.436;13.312;2023-06-14T03:45:28;15.10;99.90
33699;DHT22;20032;52.436;13.312;2023-06-14T03:47:53;15.10;99.90
33699;DHT22;20032;52.436;13.312;2023-06-14T03:50:20;15.10;99.90
33699;DHT22;20032;52.436;13.312;2023-06-14T03:52:48;15.10;99.90
33699;DHT22;20032;52.436;13.312;2023-06-14T03:55:14;15.20;99.90
33699;DHT22;20032;52.436;13.312;2023-06-14T03:57:41;15.10;99.90
33699;DHT22;20032;52.436;13.312;2023-06-14T04:00:08;15.10;99.90
33699;DHT22;20032;52.436;13.312;2023-06-14T04:02:34;15.10;99.90
33699;DHT22;20032;52.436;13.312;2023-06-14T04:05:02;15.20;99.90
33699;DHT22;20032;52.436;13.312;2023-06-14T04:07:27;15.20;99.90
33699;DHT22;20032;52.436;13.312;2023-06-14T04:09:54;15.20;99.90
33699;DHT22;20032;52.436;13.312;2023-06-14T04:12:20;15.10;99.90
33699;DHT22;20032;52.436;13.312;2023-06-14T04:14:46;15.10;99.90
33699;DHT22;20032;52.436;13.312;2023-06-14T04:17:11;15.20;99.90
33699;DHT22;20032;52.436;13.312;2023-06-14T04:19:36;15.20;99.90
33699;DHT22;20032;52.436;13.312;2023-06-14T04:22:03;15.20;99.90
33699;DHT22;20032;52.436;13.312;2023-06-14T04:24:28;15.20;99.90
33699;DHT22;20032;52.436;13.312;2023-06-14T04:26:58;15.30;99.90
33699;DHT22;20032;52.436;13.312;2023-06-14T04:29:25;15.20;99.90
33699;DHT22;20032;52.436;13.312;2023-06-14T04:31:54;15.30;99.90
33699;DHT22;20032;52.436;13.312;2023-06-14T04:34:20;15.40;99.90
33699;DHT22;20032;52.436;13.312;2023-06-14T04:36:47;15.50;99.90
33699;DHT22;20032;52.436;13.312;2023-06-14T04:39:19;15.60;99.90
33699;DHT22;20032;52.436;13.312;2023-06-14T04:41:44;15.70;99.90
33699;DHT22;20032;52.436;13.312;2023-06-14T04:44:10;15.70;99.90
33699;DHT22;20032;52.436;13.312;2023-06-14T04:46:36;15.70;99.90
33699;DHT22;20032;52.436;13.312;2023-06-14T04:49:12;15.80;99.90
33699;DHT22;20032;52.436;13.312;2023-06-14T04:51:39;15.90;99.90
33699;DHT22;20032;52.436;13.312;2023-06-14T04:54:05;15.90;99.90
33699;DHT22;20032;52.436;13.312;2023-06-14T04:56:35;16.00;99.90
33699;DHT22;20032;52.436;13.312;2023-06-14T04:59:03;16.10;99.90
33699;DHT22;20032;52.436;13.312;2023-06-14T05:01:30;16.10;99.90
33699;DHT22;20032;52.436;13.312;2023-06-14T05:03:57;16.20;99.90
33699;DHT22;20032;52.436;13.312;2023-06-14T05:06:23;16.20;99.90
33699;DHT22;20032;52.436;13.312;2023-06-14T05:08:49;16.30;99.90
33699;DHT22;20032;52.436;13.312;2023-06-14T05:11:14;16.30;99.90
33699;DHT22;20032;52.436;13.312;2023-06-14T05:13:42;16.30;99.90
33699;DHT22;20032;52.436;13.312;2023-06-14T05:16:10;16.40;99.90
33699;DHT22;20032;52.436;13.312;2023-06-14T05:18:36;16.50;99.90
33699;DHT22;20032;52.436;13.312;2023-06-14T05:21:02;16.40;99.90
33699;DHT22;20032;52.436;13.312;2023-06-14T05:23:29;16.40;99.90
33699;DHT22;20032;52.436;13.312;2023-06-14T05:25:56;16.40;99.90
33699;DHT22;20032;52.436;13.312;2023-06-14T05:28:23;16.50;99.90
33699;DHT22;20032;52.436;13.312;2023-06-14T05:30:48;16.50;99.90
33699;DHT22;20032;52.436;13.312;2023-06-14T05:33:14;16.60;99.90
33699;DHT22;20032;52.436;13.312;2023-06-14T05:35:40;16.70;99.90
33699;DHT22;20032;52.436;13.312;2023-06-14T05:38:05;16.70;99.90
33699;DHT22;20032;52.436;13.312;2023-06-14T05:40:35;16.70;99.90
33699;DHT22;20032;52.436;13.312;2023-06-14T05:43:02;16.70;99.90
33699;DHT22;20032;52.436;13.312;2023-06-14T05:45:30;16.90;99.90
33699;DHT22;20032;52.436;13.312;2023-06-14T05:47:55;17.00;99.90
33699;DHT22;20032;52.436;13.312;2023-06-14T05:50:22;17.10;99.90
33699;DHT22;20032;52.436;13.312;2023-06-14T05:52:49;17.10;99.90
33699;DHT22;20032;52.436;13.312;2023-06-14T05:55:16;17.10;99.90
33699;DHT22;20032;52.436;13.312;2023-06-14T05:57:41;17.10;99.90
33699;DHT22;20032;52.436;13.312;2023-06-14T06:00:08;17.10;99.90
33699;DHT22;20032;52.436;13.312;2023-06-14T06:02:37;17.10;99.90
33699;DHT22;20032;52.436;13.312;2023-06-14T06:05:02;17.10;99.90
33699;DHT22;20032;52.436;13.312;2023-06-14T06:07:28;17.20;99.90
33699;DHT22;20032;52.436;13.312;2023-06-14T06:09:54;17.10;99.90
33699;DHT22;20032;52.436;13.312;2023-06-14T06:12:19;17.10;99.90
33699;DHT22;20032;52.436;13.312;2023-06-14T06:14:45;17.10;99.90
33699;DHT22;20032;52.436;13.312;2023-06-14T06:17:10;17.10;99.90
33699;DHT22;20032;52.436;13.312;2023-06-14T06:19:36;17.20;99.90
33699;DHT22;20032;52.436;13.312;2023-06-14T06:22:02;17.20;99.90
33699;DHT22;20032;52.436;13.312;2023-06-14T06:24:27;17.20;99.90
33699;DHT22;20032;52.436;13.312;2023-06-14T06:26:52;17.20;99.90
33699;DHT22;20032;52.436;13.312;2023-06-14T06:29:19;17.20;99.90
33699;DHT22;20032;52.436;13.312;2023-06-14T06:31:45;17.30;99.90
33699;DHT22;20032;52.436;13.312;2023-06-14T06:34:11;17.30;99.90
33699;DHT22;20032;52.436;13.312;2023-06-14T06:36:36;17.40;99.90
33699;DHT22;20032;52.436;13.312;2023-06-14T06:39:02;17.40;99.90
33699;DHT22;20032;52.436;13.312;2023-06-14T06:41:34;17.40;99.90
33699;DHT22;20032;52.436;13.312;2023-06-14T06:44:02;17.30;99.90
33699;DHT22;20032;52.436;13.312;2023-06-14T06:46:28;17.30;99.90
33699;DHT22;20032;52.436;13.312;2023-06-14T06:48:53;17.20;99.90
33699;DHT22;20032;52.436;13.312;2023-06-14T06:51:19;17.10;99.90
33699;DHT22;20032;52.436;13.312;2023-06-14T06:53:52;17.10;99.90
33699;DHT22;20032;52.436;13.312;2023-06-14T06:56:18;17.20;99.90
33699;DHT22;20032;52.436;13.312;2023-06-14T06:58:45;17.30;99.90
33699;DHT22;20032;52.436;13.312;2023-06-14T07:01:10;17.40;99.90
33699;DHT22;20032;52.436;13.312;2023-06-14T07:03:37;17.50;99.90
33699;DHT22;20032;52.436;13.312;2023-06-14T07:06:03;17.50;99.90
33699;DHT22;20032;52.436;13.312;2023-06-14T07:08:29;17.60;99.90
33699;DHT22;20032;52.436;13.312;2023-06-14T07:10:55;17.70;99.90
33699;DHT22;20032;52.436;13.312;2023-06-14T07:13:20;17.80;99.90
33699;DHT22;20032;52.436;13.312;2023-06-14T07:15:46;17.70;99.90
33699;DHT22;20032;52.436;13.312;2023-06-14T07:18:11;17.80;99.90
33699;DHT22;20032;52.436;13.312;2023-06-14T07:20:37;18.00;99.90
33699;DHT22;20032;52.436;13.312;2023-06-14T07:23:04;18.00;99.90
33699;DHT22;20032;52.436;13.312;2023-06-14T07:25:29;18.10;99.90
33699;DHT22;20032;52.436;13.312;2023-06-14T07:27:56;18.30;99.90
33699;DHT22;20032;52.436;13.312;2023-06-14T07:30:23;18.30;99.90
33699;DHT22;20032;52.436;13.312;2023-06-14T07:32:52;18.30;99.90
33699;DHT22;20032;52.436;13.312;2023-06-14T07:35:18;18.40;99.90
33699;DHT22;20032;52.436;13.312;2023-06-14T07:37:45;18.40;99.90
33699;DHT22;20032;52.436;13.312;2023-06-14T07:40:12;18.60;99.90
33699;DHT22;20032;52.436;13.312;2023-06-14T07:42:40;18.70;99.90
33699;DHT22;20032;52.436;13.312;2023-06-14T07:45:06;19.00;99.90
33699;DHT22;20032;52.436;13.312;2023-06-14T07:47:32;18.90;99.90
33699;DHT22;20032;52.436;13.312;2023-06-14T07:49:58;18.90;99.90
33699;DHT22;20032;52.436;13.312;2023-06-14T07:52:25;18.70;99.90
33699;DHT22;20032;52.436;13.312;2023-06-14T07:54:50;18.60;99.90
33699;DHT22;20032;52.436;13.312;2023-06-14T07:57:17;18.70;99.90
33699;DHT22;20032;52.436;13.312;2023-06-14T07:59:45;18.70;99.90
33699;DHT22;20032;52.436;13.312;2023-06-14T08:02:11;18.70;99.90
33699;DHT22;20032;52.436;13.312;2023-06-14T08:04:37;18.80;99.90
33699;DHT22;20032;52.436;13.312;2023-06-14T08:07:05;18.80;99.90
33699;DHT22;20032;52.436;13.312;2023-06-14T08:09:30;19.00;99.90
33699;DHT22;20032;52.436;13.312;2023-06-14T08:11:56;19.00;99.90
33699;DHT22;20032;52.436;13.312;2023-06-14T08:14:24;19.20;99.90
33699;DHT22;20032;52.436;13.312;2023-06-14T08:16:50;19.20;99.90
33699;DHT22;20032;52.436;13.312;2023-06-14T08:19:16;19.30;99.90
33699;DHT22;20032;52.436;13.312;2023-06-14T08:21:43;19.20;99.90
33699;DHT22;20032;52.436;13.312;2023-06-14T08:24:10;19.20;99.90
33699;DHT22;20032;52.436;13.312;2023-06-14T08:26:38;19.20;99.90
33699;DHT22;20032;52.436;13.312;2023-06-14T08:29:04;19.40;99.90
33699;DHT22;20032;52.436;13.312;2023-06-14T08:31:30;19.40;99.90
33699;DHT22;20032;52.436;13.312;2023-06-14T08:33:57;19.40;99.90
33699;DHT22;20032;52.436;13.312;2023-06-14T08:36:22;19.40;99.90
33699;DHT22;20032;52.436;13.312;2023-06-14T08:38:49;19.40;99.90
33699;DHT22;20032;52.436;13.312;2023-06-14T08:41:21;19.40;99.90
33699;DHT22;20032;52.436;13.312;2023-06-14T08:43:50;19.50;99.90
33699;DHT22;20032;52.436;13.312;2023-06-14T08:46:17;19.60;99.90
33699;DHT22;20032;52.436;13.312;2023-06-14T08:48:50;19.60;99.90
33699;DHT22;20032;52.436;13.312;2023-06-14T08:51:19;19.70;99.90
33699;DHT22;20032;52.436;13.312;2023-06-14T08:53:52;19.80;99.90
33699;DHT22;20032;52.436;13.312;2023-06-14T08:56:19;19.90;99.90
33699;DHT22;20032;52.436;13.312;2023-06-14T08:58:47;19.90;99.90
33699;DHT22;20032;52.436;13.312;2023-06-14T09:01:14;20.00;99.90
33699;DHT22;20032;52.436;13.312;2023-06-14T09:03:42;20.20;99.90
33699;DHT22;20032;52.436;13.312;2023-06-14T09:06:08;20.30;99.90
33699;DHT22;20032;52.436;13.312;2023-06-14T09:08:40;20.50;99.90
33699;DHT22;20032;52.436;13.312;2023-06-14T09:11:08;20.60;99.90
33699;DHT22;20032;52.436;13.312;2023-06-14T09:13:35;20.70;99.60
33699;DHT22;20032;52.436;13.312;2023-06-14T09:16:03;20.80;99.60
33699;DHT22;20032;52.436;13.312;2023-06-14T09:18:39;20.90;99.00
33699;DHT22;20032;52.436;13.312;2023-06-14T09:21:13;20.90;98.30
33699;DHT22;20032;52.436;13.312;2023-06-14T09:23:43;20.80;97.60
33699;DHT22;20032;52.436;13.312;2023-06-14T09:26:10;20.80;98.20
33699;DHT22;20032;52.436;13.312;2023-06-14T09:28:36;20.90;97.80
33699;DHT22;20032;52.436;13.312;2023-06-14T09:31:06;20.80;97.60
33699;DHT22;20032;52.436;13.312;2023-06-14T09:33:34;20.90;98.00
33699;DHT22;20032;52.436;13.312;2023-06-14T09:36:00;20.80;98.30
33699;DHT22;20032;52.436;13.312;2023-06-14T09:38:26;20.90;98.10
33699;DHT22;20032;52.436;13.312;2023-06-14T09:40:55;20.90;98.30
33699;DHT22;20032;52.436;13.312;2023-06-14T09:43:21;20.90;97.90
33699;DHT22;20032;52.436;13.312;2023-06-14T09:45:47;20.90;98.10
33699;DHT22;20032;52.436;13.312;2023-06-14T09:48:14;20.90;98.10
33699;DHT22;20032;52.436;13.312;2023-06-14T09:50:44;20.80;98.10
33699;DHT22;20032;52.436;13.312;2023-06-14T09:53:11;20.90;98.20
33699;DHT22;20032;52.436;13.312;2023-06-14T09:55:38;21.00;98.30
33699;DHT22;20032;52.436;13.312;2023-06-14T09:58:06;21.10;98.40
33699;DHT22;20032;52.436;13.312;2023-06-14T10:00:33;21.20;98.60
33699;DHT22;20032;52.436;13.312;2023-06-14T10:03:03;21.40;97.70
33699;DHT22;20032;52.436;13.312;2023-06-14T10:05:30;21.30;97.20
33699;DHT22;20032;52.436;13.312;2023-06-14T10:08:00;21.20;97.10
33699;DHT22;20032;52.436;13.312;2023-06-14T10:10:27;21.20;96.90
33699;DHT22;20032;52.436;13.312;2023-06-14T10:12:53;21.10;96.80
33699;DHT22;20032;52.436;13.312;2023-06-14T10:15:28;21.20;97.00
33699;DHT22;20032;52.436;13.312;2023-06-14T10:18:02;21.30;96.80
33699;DHT22;20032;52.436;13.312;2023-06-14T10:20:49;21.20;96.70
33699;DHT22;20032;52.436;13.312;2023-06-14T10:23:19;21.40;96.20
33699;DHT22;20032;52.436;13.312;2023-06-14T10:25:50;21.40;96.40
33699;DHT22;20032;52.436;13.312;2023-06-14T10:28:18;21.40;96.40
33699;DHT22;20032;52.436;13.312;2023-06-14T10:31:11;21.30;95.40
33699;DHT22;20032;52.436;13.312;2023-06-14T10:36:24;21.40;96.10
33699;DHT22;20032;52.436;13.312;2023-06-14T10:39:01;21.40;95.80
33699;DHT22;20032;52.436;13.312;2023-06-14T10:41:31;21.40;95.90
33699;DHT22;20032;52.436;13.312;2023-06-14T10:46:46;21.30;95.60
33699;DHT22;20032;52.436;13.312;2023-06-14T10:49:16;21.20;95.40
33699;DHT22;20032;52.436;13.312;2023-06-14T10:51:51;21.20;95.40
33699;DHT22;20032;52.436;13.312;2023-06-14T10:54:20;21.20;95.40
33699;DHT22;20032;52.436;13.312;2023-06-14T10:56:48;21.20;95.70
33699;DHT22;20032;52.436;13.312;2023-06-14T10:59:14;21.40;95.70
33699;DHT22;20032;52.436;13.312;2023-06-14T11:01:58;21.70;95.70
33699;DHT22;20032;52.436;13.312;2023-06-14T11:04:57;22.00;95.20
33699;DHT22;20032;52.436;13.312;2023-06-14T11:07:46;22.00;94.70
33699;DHT22;20032;52.436;13.312;2023-06-14T11:10:35;22.00;94.80
33699;DHT22;20032;52.436;13.312;2023-06-14T11:13:03;22.00;95.00
33699;DHT22;20032;52.436;13.312;2023-06-14T11:15:29;22.00;94.70
33699;DHT22;20032;52.436;13.312;2023-06-14T11:17:56;22.00;94.60
33699;DHT22;20032;52.436;13.312;2023-06-14T11:20:26;22.10;94.20
33699;DHT22;20032;52.436;13.312;2023-06-14T11:22:52;22.10;93.50
33699;DHT22;20032;52.436;13.312;2023-06-14T11:25:18;22.10;93.80
33699;DHT22;20032;52.436;13.312;2023-06-14T11:27:44;22.10;93.90
33699;DHT22;20032;52.436;13.312;2023-06-14T11:30:11;22.10;94.10
33699;DHT22;20032;52.436;13.312;2023-06-14T11:32:38;22.20;94.10
33699;DHT22;20032;52.436;13.312;2023-06-14T11:35:05;22.50;94.00
33699;DHT22;20032;52.436;13.312;2023-06-14T11:37:31;22.60;93.80
33699;DHT22;20032;52.436;13.312;2023-06-14T11:39:59;22.60;93.20
33699;DHT22;20032;52.436;13.312;2023-06-14T11:42:26;22.80;92.50
33699;DHT22;20032;52.436;13.312;2023-06-14T11:44:53;23.10;92.10
33699;DHT22;20032;52.436;13.312;2023-06-14T11:47:30;23.50;91.90
33699;DHT22;20032;52.436;13.312;2023-06-14T11:49:58;23.70;90.70
33699;DHT22;20032;52.436;13.312;2023-06-14T11:52:24;23.70;88.50
33699;DHT22;20032;52.436;13.312;2023-06-14T11:54:50;23.50;90.20
33699;DHT22;20032;52.436;13.312;2023-06-14T11:57:17;23.40;90.50
33699;DHT22;20032;52.436;13.312;2023-06-14T11:59:44;23.30;90.40
33699;DHT22;20032;52.436;13.312;2023-06-14T12:02:15;23.30;90.20
33699;DHT22;20032;52.436;13.312;2023-06-14T12:04:41;23.30;89.20
33699;DHT22;20032;52.436;13.312;2023-06-14T12:07:12;23.30;87.00
33699;DHT22;20032;52.436;13.312;2023-06-14T12:09:42;23.30;88.30
33699;DHT22;20032;52.436;13.312;2023-06-14T12:12:12;23.40;88.70
33699;DHT22;20032;52.436;13.312;2023-06-14T12:14:41;23.50;88.60
33699;DHT22;20032;52.436;13.312;2023-06-14T12:17:07;23.60;88.30
33699;DHT22;20032;52.436;13.312;2023-06-14T12:19:33;23.70;90.00
33699;DHT22;20032;52.436;13.312;2023-06-14T12:22:09;23.90;89.00
33699;DHT22;20032;52.436;13.312;2023-06-14T12:24:35;24.10;88.30
33699;DHT22;20032;52.436;13.312;2023-06-14T12:27:01;24.30;86.70
33699;DHT22;20032;52.436;13.312;2023-06-14T12:29:31;24.90;84.20
33699;DHT22;20032;52.436;13.312;2023-06-14T12:31:57;25.50;81.60
33699;DHT22;20032;52.436;13.312;2023-06-14T12:34:23;26.10;81.70
33699;DHT22;20032;52.436;13.312;2023-06-14T12:36:50;26.60;78.80
33699;DHT22;20032;52.436;13.312;2023-06-14T12:39:17;27.30;77.50
33699;DHT22;20032;52.436;13.312;2023-06-14T12:41:43;28.00;75.60
33699;DHT22;20032;52.436;13.312;2023-06-14T12:44:09;28.70;74.10
33699;DHT22;20032;52.436;13.312;2023-06-14T12:46:36;29.30;71.50
33699;DHT22;20032;52.436;13.312;2023-06-14T12:49:04;29.70;70.00
33699;DHT22;20032;52.436;13.312;2023-06-14T12:51:35;29.60;69.80
33699;DHT22;20032;52.436;13.312;2023-06-14T12:54:01;29.50;69.80
33699;DHT22;20032;52.436;13.312;2023-06-14T12:56:26;29.10;68.70
33699;DHT22;20032;52.436;13.312;2023-06-14T12:58:53;28.60;70.10
33699;DHT22;20032;52.436;13.312;2023-06-14T13:01:19;28.60;69.40
33699;DHT22;20032;52.436;13.312;2023-06-14T13:03:47;28.50;68.50
33699;DHT22;20032;52.436;13.312;2023-06-14T13:06:13;28.90;68.60
33699;DHT22;20032;52.436;13.312;2023-06-14T13:08:38;29.50;67.80
33699;DHT22;20032;52.436;13.312;2023-06-14T13:11:05;30.20;65.70
33699;DHT22;20032;52.436;13.312;2023-06-14T13:13:43;30.40;65.60
33699;DHT22;20032;52.436;13.312;2023-06-14T13:16:09;30.20;65.10
33699;DHT22;20032;52.436;13.312;2023-06-14T13:18:36;29.10;65.70
33699;DHT22;20032;52.436;13.312;2023-06-14T13:21:03;28.10;68.30
33699;DHT22;20032;52.436;13.312;2023-06-14T13:23:29;27.60;69.30
33699;DHT22;20032;52.436;13.312;2023-06-14T13:25:54;27.40;69.60
33699;DHT22;20032;52.436;13.312;2023-06-14T13:28:22;27.90;69.60
33699;DHT22;20032;52.436;13.312;2023-06-14T13:30:47;29.00;66.70
33699;DHT22;20032;52.436;13.312;2023-06-14T13:33:13;29.60;66.00
33699;DHT22;20032;52.436;13.312;2023-06-14T13:35:45;29.60;65.90
33699;DHT22;20032;52.436;13.312;2023-06-14T13:38:12;29.40;63.90
33699;DHT22;20032;52.436;13.312;2023-06-14T13:40:39;28.90;64.70
33699;DHT22;20032;52.436;13.312;2023-06-14T13:43:04;29.60;63.60
33699;DHT22;20032;52.436;13.312;2023-06-14T13:45:32;30.60;63.00
33699;DHT22;20032;52.436;13.312;2023-06-14T13:48:04;30.50;60.70
33699;DHT22;20032;52.436;13.312;2023-06-14T13:50:29;30.30;61.70
33699;DHT22;20032;52.436;13.312;2023-06-14T13:52:55;30.10;62.80
33699;DHT22;20032;52.436;13.312;2023-06-14T13:55:21;29.70;62.20
33699;DHT22;20032;52.436;13.312;2023-06-14T13:57:47;29.30;63.10
33699;DHT22;20032;52.436;13.312;2023-06-14T14:00:13;29.10;63.50
33699;DHT22;20032;52.436;13.312;2023-06-14T14:02:39;29.70;61.30
33699;DHT22;20032;52.436;13.312;2023-06-14T14:05:05;30.60;59.80
33699;DHT22;20032;52.436;13.312;2023-06-14T14:07:31;30.90;59.10
33699;DHT22;20032;52.436;13.312;2023-06-14T14:09:56;32.00;58.80
33699;DHT22;20032;52.436;13.312;2023-06-14T14:12:23;32.50;57.10
33699;DHT22;20032;52.436;13.312;2023-06-14T14:14:51;31.30;58.30
33699;DHT22;20032;52.436;13.312;2023-06-14T14:17:16;29.90;59.60
33699;DHT22;20032;52.436;13.312;2023-06-14T14:19:43;29.90;59.90
33699;DHT22;20032;52.436;13.312;2023-06-14T14:22:08;30.80;59.20
33699;DHT22;20032;52.436;13.312;2023-06-14T14:24:34;31.50;58.30
33699;DHT22;20032;52.436;13.312;2023-06-14T14:27:00;30.60;59.20
33699;DHT22;20032;52.436;13.312;2023-06-14T14:29:25;29.20;61.10
33699;DHT22;20032;52.436;13.312;2023-06-14T14:32:00;28.70;60.60
33699;DHT22;20032;52.436;13.312;2023-06-14T14:34:25;28.20;61.70
33699;DHT22;20032;52.436;13.312;2023-06-14T14:36:51;27.50;63.60
33699;DHT22;20032;52.436;13.312;2023-06-14T14:39:17;27.20;63.30
33699;DHT22;20032;52.436;13.312;2023-06-14T14:41:42;26.90;63.80
33699;DHT22;20032;52.436;13.312;2023-06-14T14:44:08;26.80;65.00
33699;DHT22;20032;52.436;13.312;2023-06-14T14:46:33;26.90;64.60
33699;DHT22;20032;52.436;13.312;2023-06-14T14:48:59;26.60;65.00
33699;DHT22;20032;52.436;13.312;2023-06-14T14:51:25;26.40;65.60
33699;DHT22;20032;52.436;13.312;2023-06-14T14:53:51;26.50;66.40
33699;DHT22;20032;52.436;13.312;2023-06-14T14:56:17;27.30;64.70
33699;DHT22;20032;52.436;13.312;2023-06-14T14:58:43;27.40;64.20
33699;DHT22;20032;52.436;13.312;2023-06-14T15:01:09;27.10;64.20
33699;DHT22;20032;52.436;13.312;2023-06-14T15:03:35;26.80;63.90
33699;DHT22;20032;52.436;13.312;2023-06-14T15:06:01;26.60;64.10
33699;DHT22;20032;52.436;13.312;2023-06-14T15:08:26;26.40;65.00
33699;DHT22;20032;52.436;13.312;2023-06-14T15:10:53;26.30;65.00
33699;DHT22;20032;52.436;13.312;2023-06-14T15:13:18;26.00;66.60
33699;DHT22;20032;52.436;13.312;2023-06-14T15:15:46;25.80;67.00
33699;DHT22;20032;52.436;13.312;2023-06-14T15:18:11;25.60;67.90
33699;DHT22;20032;52.436;13.312;2023-06-14T15:20:37;25.50;68.90
33699;DHT22;20032;52.436;13.312;2023-06-14T15:23:02;25.20;69.10
33699;DHT22;20032;52.436;13.312;2023-06-14T15:25:28;25.00;69.50